x

9449880 - Friday Harbor, Wa (frdw1) Weather Station

12:36 - Fri 6th Mar 2015 All times are PST. -8 hours from GMT.

  • Wind
    1mph, 5mph gusts
  • Sea Temp 48°f
  • Luft Temp 51°f
  • Sea Pressure 1030.8mb
  • 9449880 - Friday Harbor, Wa
  • 9449880 - Friday Harbor, Wa

More Historic Weather Station data

Upgrade to MSW Pro to gain access to the past 30 days of data for over 8000 Wavebouys and Weather Stations around the globe.

Join Pro

Comparision Forecast

View Surf forecast
   
Fr 03/06 12:36 1 5 mph 1030.8mb 48f 51f
12:30 2 6 mph 1030.9mb 48f 50f
12:24 2 7 mph 1030.9mb 48f 50f
12:18 3 8 mph 1030.9mb 48f 50f
12:12 1 5 mph 1031mb 48f 51f
12:06 2 6 mph 1031.1mb 48f 50f
12:00 2 5 mph 1031.2mb 48f 50f
11:36 6 10 mph 1031.1mb 48f 49f
11:30 5 10 mph 1031.2mb 48f 49f
11:24 6 9 mph 1031.1mb 48f 49f
11:18 6 10 mph 1031.1mb 48f 49f
11:12 6 9 mph 1031.1mb 48f 48f
11:06 6 9 mph 1031.2mb 48f 48f
11:00 5 9 mph 1031.2mb 48f 48f
10:36 5 8 mph 1031.3mb 48f 48f
10:30 6 8 mph 1031.3mb 48f 48f
10:24 5 8 mph 1031.3mb 48f 47f
10:18 5 9 mph 1031.3mb 48f 48f
10:12 6 9 mph 1031.3mb 48f 48f
10:06 6 9 mph 1031.3mb 48f 47f
10:00 6 10 mph 1031.2mb 48f 47f
9:36 3 6 mph 1031.1mb 48f 47f
9:30 5 7 mph 1031mb 48f 46f
9:24 5 9 mph 1031mb 48f 46f
9:18 3 7 mph 1030.9mb 48f 46f
9:12 5 7 mph 1031mb 48f 46f
9:06 5 7 mph 1030.9mb 48f 46f
9:00 1 3 mph 1030.8mb 48f 46f
8:36 2 3 mph 1030.7mb 48f 45f
8:30  -  2 mph 1030.7mb 48f 45f
8:24  -  5 mph 1030.5mb 48f 45f
8:18  -  1 mph 1030.4mb 48f 45f
8:12  -  2 mph 1030.4mb 48f 44f
8:06  -  3 mph 1030.4mb 48f 44f
8:00  -  2 mph 1030.4mb 48f 44f
7:36 1 3 mph 1030.2mb 48f 43f
7:30  -  3 mph 1030.2mb 48f 43f
7:24  -  2 mph 1030.3mb 48f 43f
7:18 2 3 mph 1030.2mb 48f 43f
7:12  -  2 mph 1030.2mb 48f 43f
7:06  -  2 mph 1030.1mb 48f 43f
7:00 1 2 mph 1030.1mb 48f 43f
6:36 2 3 mph 1030.1mb 48f 43f
6:30 1 2 mph 1030mb 48f 43f
6:24  -  3 mph 1030.1mb 48f 44f
6:18  -  2 mph 1030.1mb 48f 44f
6:12  -  3 mph 1030mb 48f 44f
6:06 1 5 mph 1030mb 48f 44f
6:00 2 3 mph 1030.1mb 48f 44f
5:36  -  3 mph 1030mb 48f 43f
5:30  -  3 mph 1030mb 48f 43f
5:24  -  5 mph 1030mb 48f 43f
5:18  -  3 mph 1030mb 48f 43f
5:12 1 5 mph 1030mb 48f 43f
5:06  -  5 mph 1029.9mb 48f 43f
5:00 1 5 mph 1029.9mb 48f 43f
4:36 1 2 mph - 48f 42f
4:30 1 3 mph - 48f 41f
4:24 3 5 mph - 48f 42f
4:18 1 3 mph - 48f 42f
4:12 2 3 mph - 48f 42f
4:06 1 3 mph - 48f 42f
4:00 1 3 mph - 48f 41f
3:36  -  5 mph 1029.9mb 48f 42f
3:30 2 5 mph 1030mb 48f 40f
3:24 3 5 mph 1030mb 48f 40f
3:18 2 5 mph 1029.9mb 48f 39f
3:12 3 5 mph 1029.9mb 48f 39f
3:06 2 3 mph 1029.9mb 48f 40f
3:00  -  3 mph 1029.9mb 48f 41f
2:36 1 2 mph 1030mb 48f 40f
2:30  -  2 mph 1030.1mb 48f 40f
2:24 1 2 mph 1030.1mb 48f 39f
2:18 2 3 mph 1030.1mb 48f 39f
2:12 3 5 mph 1030.1mb 48f 38f
2:06 2 3 mph 1030.1mb 48f 39f
2:00 3 5 mph 1030.1mb 48f 38f
1:36  -  mph 1030.1mb - -
1:30  -  mph 1030.1mb - -
1:24  -  mph 1030mb - -
1:18  -  mph 1030mb - -
1:12  -  mph 1030mb - -
1:06  -  mph 1029.9mb - -
1:00  -  mph 1030mb - -
12:36 2
mph
1030mb 48f 39f
12:30 2 5 mph 1030mb 48f 38f
12:24 3 5 mph 1030mb 48f 38f
12:18 3 5 mph 1030.1mb 48f 40f
12:12  -  2 mph 1030.1mb 48f 40f
12:06 1
mph
1030.1mb 48f 40f
12:00  -  1 mph 1030.1mb 48f 40f
Do 03/05 11:36 2 3 mph 1030mb 48f 39f
11:30 2 3 mph 1030.1mb 48f 39f
11:24 3
mph
1030.1mb 48f 40f
11:18 1 2 mph 1030.1mb 48f 40f
11:12 1 2 mph 1030mb 48f 40f
11:06 1 2 mph 1030.1mb 48f 40f
11:00 2 3 mph 1030mb 48f 40f
10:36  -  1 mph 1029.9mb 48f -
10:30 1 3 mph 1029.9mb 48f -
10:24  -  2 mph 1029.9mb 48f -
10:18 1 2 mph 1029.9mb 48f -
10:12  -  2 mph 1029.9mb 48f -
10:06  -  1 mph 1030mb 48f -
10:00 1 2 mph 1030mb 48f -
9:36 3
mph
1029.9mb 48f 41f
9:30 1
mph
1029.9mb 48f 42f
9:24  -  mph 1029.9mb 48f 41f
9:18  -  1 mph 1029.9mb 48f 42f
9:12 1 2 mph 1029.8mb 48f 42f
9:06  -  1 mph 1029.7mb 48f 42f
9:00  -  2 mph 1029.6mb 48f 42f
8:36 1 2 mph 1029.6mb 48f 42f
8:30 1 2 mph 1029.7mb 48f 42f
8:24  -  1 mph 1029.6mb 48f 42f
8:18  -  1 mph 1029.6mb 48f 42f
8:12  -  2 mph 1029.6mb 48f 42f
8:06 1 2 mph 1029.6mb 48f 42f
8:00  -  1 mph 1029.6mb 48f 43f
7:36  -  1 mph 1029.6mb 48f 44f
7:30  -  mph 1029.5mb 48f 43f
7:24  -  1 mph 1029.5mb 48f 43f
7:18  -  1 mph 1029.4mb 48f 43f
7:12  -  2 mph 1029.4mb 48f 44f
7:06  -  1 mph 1029.4mb 48f 44f
7:00  -  1 mph 1029.3mb 48f 44f
6:36  -  1 mph 1029.2mb 48f 44f
6:30  -  1 mph 1029.2mb 48f 45f
6:24  -  1 mph 1029.2mb 48f 45f
6:18  -  2 mph 1029.2mb 48f 46f
6:12  -  mph 1029.1mb 48f 45f
6:06  -  1 mph 1029.1mb 48f 46f
6:00  -  1 mph 1029.1mb 48f 46f
5:36  -  1 mph 1029.1mb 48f 48f
5:30  -  mph 1029.1mb 48f 48f
5:24  -  1 mph 1029.1mb 48f 48f
5:18 1 2 mph 1029.1mb 48f 48f
5:12  -  1 mph 1029.2mb 48f 48f
5:06  -  mph 1029.2mb 48f 49f
5:00  -  1 mph 1029.1mb 48f 49f
4:36 1 2 mph 1029.3mb 48f 49f
4:30 1
mph
1029.2mb 48f 49f
4:24 1
mph
1029.1mb 48f 48f
4:18 2 3 mph 1029.1mb 48f 48f
4:12 2 3 mph 1029.1mb 48f 48f
4:06 2 3 mph 1029.2mb 48f 48f
4:00 2 3 mph 1029.1mb 48f 48f
3:36 3
mph
1029mb 48f 48f
3:30 2
mph
1029mb 48f 49f
3:24 1 2 mph 1029mb 48f 49f
3:18 2
mph
1029mb 48f 49f
3:12 2
mph
1029.1mb 48f 49f
3:06 2 3 mph 1029mb 48f 49f
3:00 3 5 mph 1028.9mb 48f 49f
2:36 5 6 mph 1028.8mb 48f 49f
2:30 5 6 mph 1028.9mb 48f 49f
2:24 6 7 mph 1028.9mb 48f 49f
2:18 5 7 mph 1028.9mb 48f 49f
2:12 3 5 mph 1028.9mb 48f 50f
2:06 3 6 mph 1028.8mb 48f 50f
2:00 5 6 mph 1028.7mb 48f 49f
1:36 2 6 mph 1028.9mb 48f 49f
1:30 5 6 mph 1028.8mb 48f 49f
1:24 5 6 mph 1028.8mb 48f 49f
1:18 6
mph
1028.9mb 48f 49f
1:12 6
mph
1028.8mb 48f 49f
1:06 3 6 mph 1028.9mb 48f 48f
1:00 3
mph
1029mb 48f 47f
12:54 3 5 mph 1028.9mb 48f 47f
12:48 5
mph
1028.9mb 48f 47f
12:36 5 6 mph 1029mb 48f 47f
12:30 6
mph
1029.1mb 48f 47f
12:24 6
mph
1029.2mb 48f 46f
12:18 5 6 mph 1029.3mb 48f 47f
12:12 5 6 mph 1029.3mb 48f 47f
12:06 5 6 mph 1029.4mb 48f 47f
12:00 2 3 mph 1029.4mb 48f 48f
11:54 2 3 mph 1029.4mb 48f 48f
11:48 1 3 mph 1029.4mb 48f 49f
11:36  -  2 mph 1029.4mb 48f 49f
11:30 2
mph
1029.4mb 48f 47f
11:24 1 2 mph 1029.4mb 48f 47f
11:18 1 2 mph 1029.4mb 48f 47f
11:12 1 2 mph 1029.3mb 48f 46f
11:06 2
mph
1029.2mb 48f 46f
11:00 2 3 mph 1029.2mb 48f 46f
10:54 2 3 mph 1029.2mb 48f 46f
10:48 3 5 mph 1029mb 48f 46f
10:36 3 5 mph 1028.9mb 48f 46f
10:30 5 6 mph 1028.8mb 48f 46f
10:24 3 5 mph 1028.8mb 48f 46f
10:18 3 5 mph 1028.9mb 48f 46f
10:12 2 3 mph 1028.9mb 48f 46f
10:06 3
mph
1028.8mb 48f 46f
10:00 3
mph
1028.8mb 48f 45f
9:54 2 3 mph 1028.8mb 48f 45f
9:48 2
mph
1028.9mb 48f 45f
9:36  -  1 mph 1029mb 48f 47f
9:30  -  1 mph 1029mb 48f 46f
9:24  -  1 mph 1029mb 48f 47f
9:18  -  1 mph 1029mb 48f 47f
9:12  -  1 mph 1029mb 48f 47f
9:06  -  1 mph 1029mb 48f 45f
9:00  -  2 mph 1029mb 48f 44f
8:54  -  2 mph 1029mb 48f 44f
8:48 1 2 mph 1028.9mb 48f 43f
8:36 1 2 mph 1028.8mb 48f 41f
8:30  -  2 mph 1028.7mb 48f 41f
8:24  -  2 mph 1028.6mb 48f 40f
8:18 1 2 mph 1028.5mb 48f 39f
8:12 1 2 mph 1028.4mb 48f 39f
8:06  -  2 mph 1028.3mb 48f 39f
8:00 2
mph
1028.3mb 48f 38f
7:54 2 3 mph 1028.2mb 48f 38f
7:48 2 3 mph 1028.2mb 48f 38f
7:36 2 3 mph 1028.1mb 48f 38f
7:30 2 3 mph 1028.1mb 48f 38f
7:24 2 3 mph 1027.9mb 48f 38f
7:18 1 2 mph 1027.8mb 48f 38f
7:12 1 2 mph 1027.8mb 48f 37f
7:06 1 2 mph 1027.8mb 48f 37f
7:00 1 3 mph 1027.7mb 48f 37f
6:54 3
mph
1027.6mb 48f 37f
6:48 3 5 mph 1027.6mb 48f 37f
6:36 2 3 mph 1027.5mb 48f 37f
6:30 2 3 mph 1027.4mb 48f 38f
6:24 1 2 mph 1027.4mb 48f 37f
6:18 1 3 mph 1027.4mb 48f 37f
6:12 2 3 mph 1027.4mb 48f 37f
6:06 3
mph
1027.4mb 48f 37f
6:00 2 3 mph 1027.4mb 48f 37f
5:54 1 2 mph 1027.3mb 48f 37f
5:48 1 2 mph 1027.3mb 48f 38f
5:36 1 2 mph 1027.2mb 48f 37f
5:30 2 3 mph 1027.1mb 48f 37f
5:24 2 3 mph 1027.1mb 48f 37f
5:18 2 5 mph 1027mb 48f 37f
5:12 3 5 mph 1026.9mb 48f 37f
5:06 3 5 mph 1026.8mb 48f 36f
5:00 2 3 mph 1026.7mb 48f 37f
4:54 2
mph
1026.7mb 48f 37f
4:48 2 3 mph 1026.7mb 48f 37f
4:36 2 3 mph 1026.7mb 48f 37f
4:30 3
mph
1026.7mb 48f 37f
4:24 3
mph
1026.7mb 48f 37f
4:18 1 3 mph 1026.7mb 48f 37f
4:12 2 3 mph 1026.7mb 48f 37f
4:06 1 3 mph 1026.6mb 48f 37f
4:00 3
mph
1026.6mb 48f 37f
3:54 2 3 mph 1026.6mb 48f 37f
3:48 2 3 mph 1026.6mb 48f 37f
3:36 2 3 mph 1026.7mb 48f 37f
3:30 3
mph
1026.7mb 48f 36f
3:24 3 5 mph 1026.7mb 48f 37f
3:18 2 3 mph 1026.7mb 48f 38f
3:12  -  1 mph 1026.7mb 48f 37f
3:06 2 3 mph 1026.8mb 48f 37f
3:00 2 3 mph 1026.8mb 48f 37f
2:54 3 5 mph 1026.8mb 48f 36f
2:48 3 5 mph 1026.8mb 48f 37f
2:36 2 3 mph 1026.9mb 48f 37f
2:30 2 3 mph 1026.9mb 48f 37f
2:24 2
mph
1026.9mb 48f 38f
2:18 2 3 mph 1027mb 48f 38f
2:12 3
mph
1026.9mb 48f 37f
2:06 2 3 mph 1027mb 48f 38f
2:00 2
mph
1026.9mb 48f 38f
1:54 2 3 mph 1026.9mb 48f 37f
1:48 2 3 mph 1026.9mb 48f 38f
1:36 1 3 mph 1027mb 48f 37f
1:30 2 3 mph 1027mb 48f 37f
1:24 3 5 mph 1027mb 48f 36f
1:18 5
mph
1026.9mb 48f 37f
1:12 1 2 mph 1026.8mb 48f 38f
1:06  -  3 mph 1026.8mb 48f 38f
1:00 1 2 mph 1026.8mb 48f 38f
12:54 1 2 mph 1026.9mb 48f 37f
12:48 2
mph
1026.9mb 48f 37f
12:36 2 3 mph 1026.9mb 48f 37f
12:30 5
mph
1026.9mb 48f 37f
12:24 3 5 mph 1026.8mb 48f 37f
12:18 2 3 mph 1026.8mb 48f 37f
12:12 3
mph
1026.9mb 48f 37f
12:06 2 3 mph 1026.9mb 48f 38f
12:00 2 5 mph 1026.9mb 48f 37f
Mi 03/04 11:54 3
mph
1026.9mb 48f 38f
11:48 2 3 mph 1026.9mb 48f 38f
11:36 2 3 mph 1027mb 48f 38f
11:30 2 3 mph 1027mb 48f 38f
11:24 2 3 mph 1027mb 48f 37f
11:18 3 5 mph 1026.9mb 48f 38f
11:12 2 5 mph 1026.9mb 48f 38f
11:06 2 3 mph 1026.9mb 48f 38f
11:00 3 5 mph 1026.9mb 48f 38f
10:54 2 3 mph 1026.8mb 48f 39f
10:48 2 5 mph 1026.9mb 48f 38f
10:36 3
mph
1026.9mb 48f 38f
10:30 2 3 mph 1026.7mb 48f 38f
10:24 3 5 mph 1026.7mb 48f 38f
10:18 3
mph
1026.7mb 48f 39f
10:12 2 3 mph 1026.7mb 48f 38f
10:06 2 5 mph 1026.7mb 48f 38f
10:00 3 5 mph 1026.7mb 48f 38f
9:54 3 5 mph 1026.7mb 48f 38f
9:48 2 3 mph 1026.6mb 48f 38f
9:36 3 5 mph 1026.6mb 48f 39f
9:30 3
mph
1026.5mb 48f 39f
9:24 3 5 mph 1026.4mb 48f 39f
9:18 3
mph
1026.3mb 48f 39f
9:12 2 3 mph 1026.3mb 48f 39f
9:06 2 3 mph 1026.3mb 48f 40f
9:00  -  2 mph 1026.3mb 48f 39f
8:54 1 3 mph 1026.2mb 48f 39f
8:48 2 3 mph 1026.2mb 48f 39f
8:36 2
mph
1026.3mb 48f 40f
8:30 1 2 mph 1026.3mb 48f 40f
8:24 1 2 mph 1026.3mb 48f 40f
8:18 2 3 mph 1026.2mb 48f 40f
8:12 1 2 mph 1026.2mb 48f 40f
8:06  -  1 mph 1026.1mb 48f 40f
8:00 1 2 mph 1026.1mb 48f 40f
7:54 1 2 mph 1026.1mb 48f 41f
7:48 1 2 mph 1026.1mb 48f 41f
7:36  -  1 mph 1026.1mb 48f 41f
7:30  -  mph 1026.1mb 48f 42f
7:24  -  1 mph 1026.1mb 48f 42f
7:18  -  1 mph 1026.1mb 48f 42f
7:12  -  2 mph 1026.1mb 48f 42f
7:06  -  1 mph 1026.1mb 48f 42f
7:00  -  2 mph 1026.1mb 48f 42f
6:54  -  1 mph 1026.1mb 48f 42f
6:48 1 2 mph 1026.1mb 48f 42f
6:36  -  1 mph 1026.1mb 48f 43f
6:30  -  1 mph 1026mb 48f 44f
6:24  -  1 mph 1025.9mb 48f 43f
6:18  -  mph 1025.9mb 48f 43f
6:12  -  1 mph 1025.8mb 48f 44f
6:06  -  2 mph 1025.7mb 48f 45f
6:00 1 2 mph 1025.7mb 48f 46f
5:54 2
mph
1025.5mb 48f 46f
5:48 2
mph
1025.5mb 48f 46f
5:36 1 2 mph 1025.6mb 48f 46f
5:30  -  1 mph 1025.6mb 48f 46f
5:24  -  2 mph 1025.7mb 48f 47f
5:18  -  2 mph 1025.6mb 48f 47f
5:12 1 2 mph 1025.7mb 48f 48f
5:06 2 3 mph 1025.7mb 48f 48f
5:00 3 5 mph 1025.8mb 48f 48f
4:54 5 6 mph 1025.9mb 48f 48f
4:48 2 3 mph 1025.8mb 48f 48f
4:36 2 5 mph 1025.8mb 48f 48f
4:30 5
mph
1025.9mb 48f 48f
4:24 5 7 mph 1025.9mb 48f 48f
4:18 5 6 mph 1025.9mb 48f 48f
4:12 5 6 mph 1025.8mb 48f 48f
4:06 3 6 mph 1025.9mb 48f 48f
4:00 5 6 mph 1025.9mb 48f 48f
3:54 5 6 mph 1025.9mb 48f 48f
3:48 5 6 mph 1025.9mb 48f 48f
3:36 3 5 mph 1026mb 48f 48f
3:30 2 3 mph 1026mb 48f 48f
3:24 3
mph
1026mb 48f 48f
3:18 2 3 mph 1026mb 48f 48f
3:12 2 5 mph 1026.1mb 48f 48f
3:06 3 6 mph 1026.1mb 48f 48f
3:00 5 7 mph 1026.1mb 48f 48f
2:54 6 7 mph 1026.1mb 48f 47f
2:48 5 6 mph 1026.1mb 48f 48f
2:36 5 6 mph 1026mb 48f 48f
2:30 3 7 mph 1026mb 48f 48f
2:24 5 6 mph 1025.9mb 48f 48f
2:18 2 3 mph 1026mb 48f 48f
2:12 2 3 mph 1026.1mb 48f 48f
2:06 2 3 mph 1026.1mb 48f 47f
2:00 2
mph
1026.1mb 48f 47f
1:54 2
mph
1026.1mb 48f 47f
1:48 1 2 mph 1026.2mb 48f 48f
1:36 2
mph
1026.2mb 48f 47f
1:30 2
mph
1026.3mb 48f 47f
1:24 2 3 mph 1026.3mb 48f 47f
1:18 2 3 mph 1026.3mb 48f 47f
1:12 3
mph
1026.3mb 48f 46f
1:06 2 3 mph 1026.4mb 48f 46f
1:00 2
mph
1026.3mb 48f 46f
12:54 2 3 mph 1026.4mb 48f 46f
12:48 2
mph
1026.4mb 48f 46f
12:36 2 3 mph 1026.6mb 48f 46f
12:30 2 3 mph 1026.6mb 48f 46f
12:24 2 3 mph 1026.7mb 48f 46f
12:18 2 3 mph 1026.8mb 48f 46f
12:12 2
mph
1026.7mb 48f 46f
12:06 2 3 mph 1026.8mb 48f 46f
12:00 2 3 mph 1026.9mb 48f 45f
11:54 2 3 mph 1026.9mb 48f 45f
11:48 2 3 mph 1026.9mb 48f 46f
11:36 2
mph
1026.9mb 48f 45f
11:30 1 2 mph 1026.9mb 48f 46f
11:24 1 2 mph 1026.9mb 48f 46f
11:18 1 2 mph 1026.9mb 48f 46f
11:12  -  1 mph 1026.9mb 48f 47f
11:06 1 2 mph 1026.9mb 48f 45f
11:00 2 3 mph 1026.8mb 48f 44f
10:54 3
mph
1026.8mb 48f 44f
10:48 3 5 mph 1026.8mb 48f 43f
10:36 3 5 mph 1026.9mb 48f 43f
10:30 3 5 mph 1026.9mb 48f 43f
10:24 3 6 mph 1026.9mb 48f 43f
10:18 3 5 mph 1026.8mb 48f 43f
10:12 3 5 mph 1026.9mb 48f 42f
10:06 3 5 mph 1026.9mb 48f 43f
10:00 3
mph
1027mb 48f 42f
9:54 2 3 mph 1027mb 48f 42f
9:48 2 3 mph 1027mb 48f 42f
9:36 3 5 mph 1027mb 48f 42f
9:30 2 3 mph 1026.9mb 48f 42f
9:24 1 3 mph 1026.9mb 48f 42f
9:18 2 3 mph 1026.9mb 48f 42f
9:12 1 2 mph 1026.9mb 48f 42f
9:06 2
mph
1026.8mb 48f 42f
9:00  -  1 mph 1026.8mb 48f 44f
8:54 1 2 mph 1026.7mb 48f 42f
8:48  -  1 mph 1026.7mb 48f 42f
8:36 1 2 mph 1026.6mb 48f 42f
8:30  -  2 mph 1026.6mb 48f 42f
8:24  -  1 mph 1026.5mb 48f 41f
8:18  -  2 mph 1026.5mb 48f 41f
8:12  -  1 mph 1026.5mb 48f 40f
8:06  -  2 mph 1026.5mb 48f 38f
8:00 2
mph
1026.4mb 48f 36f
7:54 2 3 mph 1026.4mb 48f 36f
7:48 2 5 mph 1026.4mb 48f 35f
7:36 2 3 mph 1026.4mb 48f 35f
7:30 3
mph
1026.4mb 48f 35f
7:24 2 3 mph 1026.3mb 48f 35f
7:18 2 3 mph 1026.3mb 48f 34f
7:12 2 3 mph 1026.2mb 48f 34f
7:06 3
mph
1026.2mb 48f 33f
7:00 3
mph
1026.2mb 48f 33f
6:54 2 5 mph 1026.2mb 48f 33f
6:48 3 5 mph 1026.2mb 48f 33f
6:36  -  1 mph 1026.2mb 48f 33f
6:30 2 3 mph 1026.1mb 48f 33f
6:24 2 5 mph 1026.1mb 48f 34f
6:18 2
mph
1026.1mb 48f 34f
6:12 1 2 mph 1026.1mb 48f 34f
6:06 1 3 mph 1026.1mb 48f 33f
6:00 3 5 mph 1026.1mb 48f 33f
5:54 3 5 mph 1026.1mb 48f 33f
5:48  -  3 mph 1026.1mb 48f 34f
5:36  -  1 mph 1026mb 48f 34f
5:30 1 2 mph 1026.1mb 48f 35f
5:24 1 2 mph 1026.1mb 48f 35f
5:18 1 3 mph 1026mb 48f 34f
5:12 2 3 mph 1025.9mb 48f 35f
5:06 2
mph
1025.9mb 48f 35f
5:00 1 2 mph 1026mb 48f 35f
4:54 2 3 mph 1025.9mb 48f 35f
4:48 2
mph
1025.9mb 48f 35f
4:36 1 2 mph 1025.8mb 48f 34f
4:30 2 5 mph 1025.8mb 48f 34f
4:24 3 5 mph 1025.8mb 48f 33f
4:18 3 5 mph 1025.8mb 48f 33f
4:12 3 5 mph 1025.7mb 48f 34f
4:06 2 3 mph 1025.7mb 48f 35f
4:00 1
mph
1025.6mb 48f 35f
3:54  -  1 mph 1025.7mb 48f 35f
3:48 1 5 mph 1025.7mb 48f 35f
3:36  -  3 mph 1025.7mb 48f 35f
3:30 2 3 mph 1025.7mb 48f 35f
3:24 2 3 mph 1025.7mb 48f 34f
3:18 3 5 mph 1025.7mb 48f 34f
3:12 3 5 mph 1025.7mb 48f 34f
3:06  -  1 mph 1025.7mb 48f 35f
3:00  -  2 mph 1025.7mb 48f 34f
2:54 2 5 mph 1025.7mb 48f 33f
2:48 5
mph
1025.8mb 48f 34f
2:36 2 3 mph 1025.8mb 48f 35f
2:30 2 3 mph 1025.9mb 48f 35f
2:24 2 3 mph 1025.8mb 48f 35f
2:18 2 3 mph 1025.7mb 48f 35f
2:12 2 5 mph 1025.8mb 48f 34f
2:06 2 3 mph 1025.8mb 48f 35f
2:00  -  2 mph 1025.9mb 48f 35f
1:54  -  3 mph 1025.9mb 48f 35f
1:48 5 6 mph 1025.9mb 48f 34f
1:36 2
mph
1025.8mb 48f 36f
1:30  -  2 mph 1025.7mb 48f 36f
1:24 2 5 mph 1025.7mb 48f 35f
1:18 2 3 mph 1025.7mb 48f 34f
1:12 3 5 mph 1025.6mb 48f 34f
1:06 3 5 mph 1025.6mb 48f 35f
1:00 2
mph
1025.5mb 48f 35f
12:54  -  3 mph 1025.5mb 48f 35f
12:48 2 5 mph 1025.5mb 48f 34f
12:36 3 5 mph 1025.4mb 48f 35f
12:30 3 5 mph 1025.3mb 48f 35f
12:24 3
mph
1025.3mb 48f 36f
12:18 1
mph
1025.3mb 48f 36f
12:12 1 2 mph 1025.3mb 48f 35f
12:06 2 3 mph 1025.2mb 48f 34f
12:00 5 6 mph 1025.2mb 48f 34f
Di 03/03 11:54 5
mph
1025.1mb 48f 34f
11:48 3 5 mph 1025.1mb 48f 35f
11:36 2 3 mph 1025.1mb 48f 36f
11:30 2 3 mph 1025.1mb 48f 35f
11:24 3 5 mph 1025mb 48f 35f
11:18 3
mph
1025mb 48f 35f
11:12 2 3 mph 1025mb 48f 36f
11:06 3
mph
1025mb 48f 36f
11:00 3
mph
1025mb 48f 36f
10:54 3 5 mph 1025mb 48f 36f
10:48 2 3 mph 1024.9mb 48f 36f
10:36 2 3 mph 1024.9mb 48f 36f
10:30  -  mph 1024.9mb 48f 36f
10:24  -  2 mph 1024.9mb 48f 36f
10:18  -  2 mph 1024.9mb 48f 36f
10:12 2 3 mph 1024.9mb 48f 36f
10:06 2 3 mph 1024.8mb 48f 35f
10:00 3
mph
1024.8mb 48f 36f
9:54 3
mph
1024.8mb 48f 36f
9:48 2 3 mph 1024.7mb 48f 36f
9:36 2 3 mph 1024.7mb 48f 37f
9:30 1 2 mph 1024.7mb 48f 36f
9:24 3
mph
1024.6mb 48f 36f
9:18 2 3 mph 1024.6mb 48f 37f
9:12 2 3 mph 1024.5mb 48f 37f
9:06 2
mph
1024.4mb 48f 37f
9:00 1 2 mph 1024.4mb 48f 37f
8:54 1 3 mph 1024.3mb 48f 37f
8:48 2 3 mph 1024.3mb 48f 38f
8:36 2
mph
1024.2mb 48f 37f
8:30 2 3 mph 1024.2mb 48f 38f
8:24 1 2 mph 1024.2mb 48f 38f
8:18  -  2 mph 1024.1mb 48f 38f
8:12  -  1 mph 1024.1mb 48f 38f
8:06 2
mph
1024.1mb 48f 38f
8:00 3
mph
1024.1mb 48f 39f
7:54  -  2 mph 1024.1mb 48f 39f
7:48  -  2 mph 1024.1mb 48f 39f
7:36 2 3 mph 1024mb 48f 39f
7:30 2 3 mph 1024mb 48f 39f
7:24 1 2 mph 1024mb 48f 39f
7:18  -  1 mph 1024.1mb 48f 40f
7:12  -  3 mph 1024.1mb 48f 40f
7:06 2 3 mph 1024.1mb 48f 40f
7:00 1 3 mph 1024.1mb 48f 40f
6:54 2 3 mph 1024.1mb 48f 41f
6:48  -  1 mph 1024.1mb 48f 43f
6:36  -  1 mph 1024mb 48f 44f
6:30  -  1 mph 1023.9mb 48f 44f
6:24  -  2 mph 1023.9mb 48f 43f
6:18  -  2 mph 1023.9mb 48f 44f
6:12  -  1 mph 1023.9mb 48f 44f
6:06  -  1 mph 1023.9mb 48f 44f
6:00  -  2 mph 1024mb 48f 44f
5:54  -  2 mph 1023.9mb 48f 45f
5:48  -  1 mph 1023.9mb 48f 45f
5:36  -  1 mph 1023.9mb 48f 47f
5:30  -  2 mph 1023.9mb 48f 47f
5:24  -  1 mph 1023.9mb 48f 49f
5:18  -  1 mph 1023.9mb 48f 49f
5:12  -  2 mph 1023.9mb 48f 49f
5:06  -  2 mph 1023.9mb 48f 49f
5:00  -  1 mph 1023.9mb 48f 50f
4:54  -  2 mph 1023.9mb 48f 48f
4:48  -  1 mph 1023.9mb 48f 49f
4:36  -  3 mph 1023.9mb 48f 47f
4:30 1 2 mph 1024mb 48f 47f
4:24 2 5 mph 1024mb 48f 47f
4:18 2 5 mph 1024.1mb 48f 47f
4:12 2 3 mph 1024.1mb 48f 47f
4:06 2 3 mph 1024.2mb 48f 47f
4:00 2 3 mph 1024.2mb 48f 47f
3:54 1 6 mph 1024.2mb 48f 47f
3:48 2 5 mph 1024.3mb 48f 47f
3:36 2 3 mph 1024.3mb 48f 47f
3:30 2 5 mph 1024.3mb 48f 47f
3:24 3 6 mph 1024.4mb 48f 47f
3:18 2 5 mph 1024.4mb 48f 48f
3:12 3 5 mph 1024.4mb 48f 47f
3:06 1 7 mph 1024.5mb 48f 47f
3:00 3 6 mph 1024.4mb 48f 47f
2:54 3 6 mph 1024.4mb 48f 47f
2:48 5 7 mph 1024.4mb 48f 47f
2:36 2 6 mph 1024.5mb 48f 47f
2:30 3 10 mph 1024.5mb 48f 47f
2:24 2 8 mph 1024.5mb 48f 47f
2:18 3 7 mph 1024.6mb 48f 48f
2:12 3 7 mph 1024.6mb 48f 47f
2:06 3 7 mph 1024.6mb 48f 47f
2:00 2 5 mph 1024.7mb 48f 48f
1:54 1 5 mph 1024.8mb 48f 48f
1:48 1 6 mph 1024.7mb 48f 48f
1:36 6 11 mph 1024.9mb 48f 47f
1:30 3 9 mph 1024.8mb 48f 47f
1:24 6 11 mph 1024.8mb 48f 47f
1:18 2 7 mph 1024.9mb 48f 47f
1:12 3 9 mph 1024.9mb 48f 47f
1:06 6 9 mph 1024.9mb 48f 47f
1:00 5 7 mph 1025mb 48f 47f
12:54 7 11 mph 1025mb 48f 47f
12:48 6 9 mph 1025mb 48f 47f
12:36 6 10 mph 1025.1mb 48f 46f
12:30 7 10 mph 1025.1mb 48f 46f
12:24 7 9 mph 1025.2mb 48f 46f
12:18 8 10 mph 1025.3mb 48f 46f
12:12 9 13 mph 1025.3mb 48f 46f
12:06 9 11 mph 1025.3mb 48f 46f
12:00 7 13 mph 1025.3mb 48f 46f
11:54 8 11 mph 1025.3mb 48f 46f
11:48 5 8 mph 1025.3mb 48f 46f
11:36 5 7 mph 1025.3mb 48f 45f
11:30 6 10 mph 1025.3mb 48f 46f
11:24 8 9 mph 1025.3mb 48f 45f
11:18 8 10 mph 1025.4mb 48f 44f
11:12 3 5 mph 1025.5mb 48f 44f
11:06 5
mph
1025.5mb 48f 44f
11:00 2
mph
1025.5mb 48f 45f
10:54 1 2 mph 1025.5mb 48f 46f
10:48 1 2 mph 1025.5mb 48f 45f
10:36 2 3 mph 1025.5mb 48f 44f
10:30 2 3 mph 1025.5mb 48f 44f
10:24 2 3 mph 1025.6mb 48f 44f
10:18 1 2 mph 1025.6mb 48f 45f
10:12  -  2 mph 1025.6mb 48f 45f
10:06  -  2 mph 1025.6mb 48f 45f
10:00 1 3 mph 1025.7mb 48f 46f
9:54  -  2 mph 1025.7mb 48f 45f
9:48 1 2 mph 1025.7mb 48f 44f
9:36 2 3 mph 1025.6mb 48f 44f
9:30 3 7 mph 1025.6mb 48f 43f
9:24 5 7 mph 1025.6mb 48f 43f
9:18 5 7 mph 1025.5mb 48f 43f
9:12 5 7 mph 1025.5mb 48f 43f
9:06 6 8 mph 1025.6mb 48f 43f
9:00 6 8 mph 1025.5mb 48f 43f
8:36 3 6 mph 1025.2mb 48f 43f
8:30 5 6 mph 1025.1mb 48f 42f
8:24 2 3 mph 1025.1mb 48f 43f
8:18 2 5 mph 1025mb 48f 42f
8:12 2 5 mph 1024.9mb 48f 43f
8:06 2 3 mph 1024.9mb 48f 42f
8:00 2 3 mph 1024.8mb 48f 43f
7:36 3 8 mph 1024.5mb 48f 41f
7:30 3 8 mph 1024.5mb 48f 41f
7:24 2 6 mph 1024.5mb 48f 41f
7:18 1 3 mph 1024.4mb 48f 41f
7:12  -  2 mph 1024.4mb 48f 40f
7:06 1 6 mph 1024.3mb 48f 40f
7:00  -  5 mph 1024.3mb 48f 39f
6:54 2 7 mph 1024.3mb 48f 39f
6:48 1 5 mph 1024.3mb 48f 39f
6:36  -  mph 1024.5mb 48f -
6:30  -  mph 1024.6mb 48f -
6:24  -  mph 1024.6mb 48f -
6:18  -  mph 1024.6mb 48f -
6:12  -  mph 1024.6mb 48f -
6:06  -  mph 1024.4mb 48f -
6:00  -  mph 1024.4mb 48f -
5:54  -  mph 1024.3mb 48f -
5:48  -  mph 1024.3mb 48f -
5:36  -  mph 1024.3mb - 41f
5:30  -  mph 1024.3mb - 41f
5:24  -  mph 1024.2mb - 41f
5:18  -  mph 1024.2mb - 42f
5:12  -  mph 1024.2mb - 42f
5:06  -  mph 1024.2mb - 42f
5:00  -  mph 1024.2mb - 42f
4:54  -  mph 1024.3mb - 42f
4:48  -  mph 1024.3mb - 42f
4:36 8 11 mph - - -
4:30 10 14 mph - - -
4:24 9 13 mph - - -
4:18 10 14 mph - - -
4:12 10 14 mph - - -
4:06 10 13 mph - - -
4:00 10 13 mph - - -
3:54 11 14 mph - - -
3:48 10 13 mph - - -
3:36  -  mph - 48f -
3:30  -  mph - 48f -
3:24  -  mph - 48f -
3:18  -  mph - 48f -
3:12  -  mph - 48f -
3:06  -  mph - 48f -
3:00  -  mph - 48f -
2:54  -  mph - 48f -
2:48  -  mph - 48f -
2:36  -  mph 1024.1mb 48f 44f
2:30  -  mph 1023.9mb 48f 44f
2:24  -  mph 1023.9mb 48f 44f
2:18  -  mph 1023.8mb 48f 44f
2:12  -  mph 1023.8mb 48f 44f
2:06  -  mph 1023.7mb 48f 44f
2:00  -  mph 1023.5mb 48f 44f
1:54  -  mph 1023.4mb 48f 44f
1:48  -  mph 1023.5mb 48f 44f
1:36  -  mph 1023.2mb - -
1:30  -  mph 1023.3mb - -
1:24  -  mph 1023.3mb - -
1:18  -  mph 1023.2mb - -
1:12  -  mph 1023.2mb - -
1:06  -  mph 1023.2mb - -
1:00  -  mph 1023.3mb - -
12:54  -  mph 1023.3mb - -
12:48  -  mph 1023.2mb - -
12:36 11 16 mph 1023.2mb - 45f
12:30 15 20 mph 1023.1mb - 46f
12:24 15 20 mph 1023mb - 46f
12:18 11 16 mph 1022.9mb - 46f
12:12 10 14 mph 1022.9mb - 46f
12:06 10 17 mph 1022.8mb - 46f
12:00 11 17 mph 1022.7mb - 46f
Mo 03/02 11:54 10 18 mph 1022.8mb - 46f
11:48 13 18 mph 1022.8mb - 46f
11:36 15 20 mph - - -
11:30 16 21 mph - - -
11:24 13 21 mph - - -
11:18 14 20 mph - - -
11:12 16 18 mph - - -
11:06 16 20 mph - - -
11:00 15 18 mph - - -
10:54 11 17 mph - - -
10:48 11 18 mph - - -
10:24  -  mph 1021.8mb 48f -
10:06  -  mph 1021.6mb 48f -
10:00  -  mph 1021.6mb 48f -
9:54  -  mph 1021.5mb 48f -
9:48  -  mph 1021.4mb 48f -